CLRO2: Verdigris River, Claremore, OK

Data processed at Wed May 22 2019 23:30


All information presented herein is the property of the government of the United States of America and may be revised or deleted at any time without prior notice.
Dissemination of this information without the expressed written consent of the Public Affairs Office, Tulsa District U.S. Army Corps of Engineers is strictly prohibited.
These data are gathered electronically and, as presented, have not undergone any form of quality control. These data are not guaranteed to be valid or correct.
Go to home page.
Go to station list.
Go to home page.

Upstream stations:

Downstream station:
Previous Day
Next Day
Current Day
    
SHEF ID:       CLRO2     Verdigris River near Claremore,
STATION TYPE:  
Regulating: Stage =    35.00, Flow =    54965

               PRECIP     STAGE  STAGE(2)  RIV-FLOW  BAT-LOAD
                   in        ft        ft       cfs      volt
              Ccp-Rev   Ccp-Rev   Ccp-Rev   Ccp-Rev   Ccp-Rev
(US/Central)
05/22 00:00      0.00     23.64     23.92     32746     12.81
05/22 01:00      0.00     23.38     23.71     32255     12.81
05/22 02:00      0.00     23.21     23.51     31934     12.81
05/22 03:00      0.00     22.96     23.32     31463     12.73
05/22 04:00      0.00     22.83     23.15     31218     12.73
05/22 05:00      0.00     22.71     22.97     30992     12.73
05/22 06:00      0.00     22.54     22.85     30673     12.73
05/22 07:00      0.00     22.44     22.71     30485     12.73
05/22 08:00      0.00     22.25     22.60     30129     12.97
05/22 09:00      0.00     22.17     22.49     29979     13.37
05/22 10:00      0.00     22.15     22.43     29942     13.68
05/22 11:00      0.00     22.12     22.41     29886     13.68
05/22 12:00      0.00     22.00     22.38     29661     13.68
05/22 13:00      0.00     22.09     22.37     29830     13.68
05/22 14:00      0.00     22.14     22.44     29923     13.68
05/22 15:00      0.00     22.17     22.53     29979     13.53
05/22 16:00      0.00     22.35     22.64     30317     13.76
05/22 17:00      0.00     22.45     22.81     30504     13.37
05/22 18:00      0.00     23.04     23.38     31613     13.29
05/22 19:00      0.01     23.73     24.04     32917     13.13
05/22 20:00      0.15     24.41     24.73     34207     13.05
05/22 21:00      0.01     25.01     25.34     35350     12.89
05/22 22:00      0.00     25.56     25.90     36402     12.89
05/22 23:00      ----      ----      ----      ----      ----